createdAt,value
2022-10-29T03:01:38.123Z,14.88
2022-10-29T03:04:06.782Z,14.89
2022-10-29T03:06:35.139Z,14.99
2022-10-29T03:09:03.572Z,14.97
2022-10-29T03:11:32.021Z,14.94
2022-10-29T03:14:00.514Z,14.91
2022-10-29T03:16:28.876Z,14.96
2022-10-29T03:18:58.672Z,15.04
2022-10-29T03:21:27.005Z,15.08
2022-10-29T03:23:55.638Z,15.10
2022-10-29T03:26:24.271Z,15.11
2022-10-29T03:28:52.681Z,15.19
2022-10-29T03:31:21.095Z,15.05
2022-10-29T03:33:49.419Z,14.94
2022-10-29T03:36:19.207Z,14.95
2022-10-29T03:38:47.526Z,14.86
2022-10-29T03:41:16.548Z,14.80
2022-10-29T03:43:44.992Z,14.74
2022-10-29T03:46:13.377Z,14.73
2022-10-29T03:48:41.796Z,14.69
2022-10-29T03:51:11.866Z,14.65
2022-10-29T03:53:41.588Z,14.67
2022-10-29T03:56:14.051Z,14.60
2022-10-29T03:58:42.423Z,14.56
2022-10-29T04:01:12.060Z,14.45
2022-10-29T04:03:42.415Z,14.45
2022-10-29T04:06:13.207Z,14.41
2022-10-29T04:08:43.179Z,14.40
2022-10-29T04:11:14.524Z,14.44
2022-10-29T04:13:42.968Z,14.44
2022-10-29T04:16:11.360Z,14.42
2022-10-29T04:18:39.703Z,14.35
2022-10-29T04:29:35.432Z,14.31
2022-10-29T04:32:03.817Z,14.39
2022-10-29T04:34:32.174Z,14.24
2022-10-29T04:37:00.569Z,14.25
2022-10-29T04:39:30.332Z,14.13
2022-10-29T04:41:58.791Z,14.01
2022-10-29T04:44:28.426Z,13.96
2022-10-29T04:46:56.807Z,13.89
2022-10-29T04:49:25.284Z,13.96
2022-10-29T04:51:53.759Z,13.90
2022-10-29T04:54:22.144Z,13.99
2022-10-29T04:56:51.918Z,13.99
2022-10-29T04:59:20.274Z,14.05
2022-10-29T05:01:48.802Z,14.09
2022-10-29T05:04:17.187Z,14.05
2022-10-29T05:06:45.517Z,14.01
2022-10-29T05:09:13.901Z,14.00
2022-10-29T05:11:42.217Z,14.06
2022-10-29T05:14:11.967Z,14.08
2022-10-29T05:16:40.374Z,14.08
2022-10-29T05:19:08.721Z,14.10
2022-10-29T05:21:37.239Z,14.10
2022-10-29T05:24:06.058Z,14.10
2022-10-29T05:26:34.509Z,14.07
2022-10-29T05:29:03.100Z,14.09
2022-10-29T05:31:32.851Z,14.15
2022-10-29T05:34:01.220Z,14.15
2022-10-29T05:36:29.679Z,14.23
2022-10-29T05:38:58.082Z,14.24
2022-10-29T05:41:26.483Z,14.21
2022-10-29T05:43:54.821Z,14.22
2022-10-29T05:46:23.213Z,14.26
2022-10-29T05:48:52.946Z,14.24
2022-10-29T05:51:21.357Z,14.32
2022-10-29T05:53:49.873Z,14.29
2022-10-29T05:56:18.494Z,14.21
2022-10-29T05:58:49.859Z,14.18
2022-10-29T06:01:19.814Z,14.15
2022-10-29T06:03:48.433Z,14.16
2022-10-29T06:06:18.263Z,14.18
2022-10-29T06:08:46.676Z,14.09
2022-10-29T06:11:15.028Z,14.06
2022-10-29T06:13:43.456Z,13.96
2022-10-29T06:16:11.916Z,13.84
2022-10-29T06:18:40.331Z,13.77
2022-10-29T06:21:08.744Z,13.80
2022-10-29T06:23:38.553Z,13.62
2022-10-29T06:26:07.150Z,13.59
2022-10-29T06:28:35.512Z,13.52
2022-10-29T06:31:04.096Z,13.57
2022-10-29T06:33:32.501Z,13.63
2022-10-29T06:36:01.633Z,13.61
2022-10-29T06:38:30.305Z,13.56
2022-10-29T06:41:00.065Z,13.42
2022-10-29T06:43:28.492Z,13.50
2022-10-29T06:45:56.954Z,13.50
2022-10-29T06:48:25.455Z,13.46
2022-10-29T06:50:54.033Z,13.42
2022-10-29T06:53:22.567Z,13.41
2022-10-29T06:55:50.929Z,13.46
2022-10-29T06:58:22.538Z,13.42
2022-10-29T07:00:51.154Z,13.58
2022-10-29T07:03:21.359Z,13.62
2022-10-29T07:05:56.552Z,13.66
2022-10-29T07:08:24.969Z,13.59
2022-10-29T07:10:54.495Z,13.63
2022-10-29T07:13:24.328Z,13.69
2022-10-29T07:15:52.747Z,13.68
2022-10-29T07:18:21.113Z,13.68
2022-10-29T07:20:49.562Z,13.69
2022-10-29T07:23:18.025Z,13.73
2022-10-29T07:25:46.534Z,13.65
2022-10-29T07:28:17.625Z,13.64
2022-10-29T07:30:48.362Z,13.73
2022-10-29T07:33:17.245Z,13.69
2022-10-29T07:35:46.697Z,13.68
2022-10-29T07:38:15.251Z,13.74
2022-10-29T07:40:50.303Z,13.79
2022-10-29T07:43:20.167Z,13.86
2022-10-29T07:45:53.187Z,13.88
2022-10-29T07:48:22.485Z,13.92
2022-10-29T07:50:51.182Z,13.99
2022-10-29T07:53:19.598Z,14.00
2022-10-29T07:55:55.046Z,14.08
2022-10-29T07:58:24.269Z,14.11
2022-10-29T08:00:54.673Z,14.12
2022-10-29T08:03:23.394Z,14.17
2022-10-29T08:05:55.451Z,14.24
2022-10-29T08:08:25.193Z,14.23
2022-10-29T08:10:53.616Z,14.22
2022-10-29T08:13:21.978Z,14.36
2022-10-29T08:15:50.381Z,14.48
2022-10-29T08:18:20.354Z,14.55
2022-10-29T08:20:49.137Z,14.66
2022-10-29T08:23:17.592Z,14.74
2022-10-29T08:25:46.670Z,14.81
2022-10-29T08:28:17.156Z,14.80
2022-10-29T08:30:51.180Z,14.85
2022-10-29T08:33:20.994Z,14.90
2022-10-29T08:35:49.781Z,14.91
2022-10-29T08:38:18.149Z,14.96
2022-10-29T08:41:12.289Z,15.00
2022-10-29T08:44:07.397Z,15.02
2022-10-29T08:46:45.467Z,15.05
2022-10-29T08:49:19.448Z,15.08
2022-10-29T08:51:55.777Z,15.15
2022-10-29T08:54:31.164Z,15.19
2022-10-29T08:57:06.868Z,15.18
2022-10-29T08:59:42.285Z,15.25
2022-10-29T09:02:18.072Z,15.33
2022-10-29T09:04:47.820Z,15.38
2022-10-29T09:07:55.162Z,15.50
2022-10-29T09:10:34.255Z,15.50
2022-10-29T09:13:27.867Z,15.61
2022-10-29T09:16:11.610Z,15.62
2022-10-29T09:19:05.148Z,15.69
2022-10-29T09:21:41.964Z,15.79
2022-10-29T09:24:16.333Z,15.88
2022-10-29T09:26:55.493Z,15.99
2022-10-29T09:29:47.162Z,16.08
2022-10-29T09:32:22.717Z,16.14
2022-10-29T09:34:54.183Z,16.22
2022-10-29T09:37:30.037Z,16.28
2022-10-29T09:39:59.621Z,16.35
2022-10-29T09:42:37.566Z,16.48
2022-10-29T09:45:09.480Z,16.61
2022-10-29T09:47:47.232Z,16.70
2022-10-29T09:50:27.669Z,16.81
2022-10-29T09:52:57.833Z,16.92
2022-10-29T09:55:29.276Z,16.95
2022-10-29T09:57:59.189Z,16.97
2022-10-29T10:00:30.496Z,17.09
2022-10-29T10:03:04.118Z,17.07
2022-10-29T10:05:35.289Z,17.10
2022-10-29T10:08:12.245Z,17.13
2022-10-29T10:10:53.117Z,17.16
2022-10-29T10:13:27.006Z,17.17
2022-10-29T10:15:57.783Z,17.20
2022-10-29T10:18:28.575Z,17.25
2022-10-29T10:21:08.600Z,17.25
2022-10-29T10:23:51.745Z,17.22
2022-10-29T10:26:36.990Z,17.19
2022-10-29T10:29:14.984Z,17.19
2022-10-29T10:31:45.670Z,17.31
2022-10-29T10:34:21.031Z,17.46
2022-10-29T10:36:53.615Z,17.59
2022-10-29T10:39:31.737Z,17.81
2022-10-29T10:42:04.886Z,18.05
2022-10-29T10:44:34.080Z,18.16
2022-10-29T10:47:09.254Z,18.46
2022-10-29T10:49:39.334Z,18.62
2022-10-29T10:52:16.841Z,19.02
2022-10-29T10:54:56.215Z,19.50
2022-10-29T10:57:28.729Z,19.98
2022-10-29T11:00:07.499Z,20.37
2022-10-29T11:02:48.296Z,20.48
2022-10-29T11:05:19.912Z,20.37
2022-10-29T11:07:56.517Z,20.24
2022-10-29T11:10:34.709Z,20.04
2022-10-29T11:13:09.338Z,19.85
2022-10-29T11:15:43.071Z,19.85
2022-10-29T11:18:19.564Z,19.78
2022-10-29T11:20:58.858Z,19.69
2022-10-29T11:23:38.343Z,19.70
2022-10-29T11:26:13.914Z,19.66
2022-10-29T11:28:50.133Z,19.54
2022-10-29T11:31:25.396Z,19.48
2022-10-29T11:34:05.510Z,19.45
2022-10-29T11:36:41.958Z,19.45
2022-10-29T11:39:17.077Z,19.38
2022-10-29T11:41:57.374Z,19.29
2022-10-29T11:44:27.150Z,19.25
2022-10-29T11:47:23.030Z,19.23
2022-10-29T11:50:23.289Z,19.20
2022-10-29T11:53:03.360Z,19.25
2022-10-29T11:55:42.890Z,19.26
2022-10-29T11:58:19.261Z,19.28
